sensor_id;sensor_type;location;lat;lon;timestamp;pressure;altitude;pressure_sealevel;temperature;humidity
4469;BME280;2247;42.666;23.292;2023-05-19T00:00:05;94594.31;;;14.75;70.94
4469;BME280;2247;42.666;23.292;2023-05-19T00:02:32;94594.72;;;14.82;70.56
4469;BME280;2247;42.666;23.292;2023-05-19T00:05:02;94592.34;;;14.80;71.03
4469;BME280;2247;42.666;23.292;2023-05-19T00:07:30;94591.56;;;14.80;71.16
4469;BME280;2247;42.666;23.292;2023-05-19T00:09:58;94590.28;;;14.77;71.04
4469;BME280;2247;42.666;23.292;2023-05-19T00:12:25;94588.81;;;14.71;71.28
4469;BME280;2247;42.666;23.292;2023-05-19T00:14:53;94585.38;;;14.71;71.01
4469;BME280;2247;42.666;23.292;2023-05-19T00:17:20;94593.31;;;14.71;70.82
4469;BME280;2247;42.666;23.292;2023-05-19T00:19:47;94590.06;;;14.74;70.32
4469;BME280;2247;42.666;23.292;2023-05-19T00:22:15;94594.31;;;14.75;70.86
4469;BME280;2247;42.666;23.292;2023-05-19T00:24:42;94585.28;;;14.76;70.50
4469;BME280;2247;42.666;23.292;2023-05-19T00:27:09;94584.09;;;14.82;70.23
4469;BME280;2247;42.666;23.292;2023-05-19T00:29:37;94573.59;;;14.77;69.96
4469;BME280;2247;42.666;23.292;2023-05-19T00:32:04;94579.97;;;14.76;70.02
4469;BME280;2247;42.666;23.292;2023-05-19T00:34:31;94572.28;;;14.74;69.74
4469;BME280;2247;42.666;23.292;2023-05-19T00:36:58;94573.09;;;14.75;69.87
4469;BME280;2247;42.666;23.292;2023-05-19T00:39:26;94570.44;;;14.75;70.02
4469;BME280;2247;42.666;23.292;2023-05-19T00:41:53;94569.34;;;14.76;69.42
4469;BME280;2247;42.666;23.292;2023-05-19T00:44:20;94573.88;;;14.75;69.46
4469;BME280;2247;42.666;23.292;2023-05-19T00:46:47;94572.00;;;14.76;69.54
4469;BME280;2247;42.666;23.292;2023-05-19T00:49:14;94548.31;;;14.66;69.61
4469;BME280;2247;42.666;23.292;2023-05-19T00:51:40;94560.91;;;14.74;69.71
4469;BME280;2247;42.666;23.292;2023-05-19T00:54:08;94557.06;;;14.80;69.22
4469;BME280;2247;42.666;23.292;2023-05-19T00:56:36;94561.31;;;14.81;69.55
4469;BME280;2247;42.666;23.292;2023-05-19T00:59:03;94555.22;;;14.80;68.77
4469;BME280;2247;42.666;23.292;2023-05-19T01:01:31;94560.50;;;14.80;69.30
4469;BME280;2247;42.666;23.292;2023-05-19T01:03:59;94559.25;;;14.78;69.24
4469;BME280;2247;42.666;23.292;2023-05-19T01:06:26;94565.91;;;14.75;69.16
4469;BME280;2247;42.666;23.292;2023-05-19T01:08:54;94571.50;;;14.74;69.29
4469;BME280;2247;42.666;23.292;2023-05-19T01:11:21;94571.09;;;14.67;69.34
4469;BME280;2247;42.666;23.292;2023-05-19T01:13:49;94558.44;;;14.64;69.60
4469;BME280;2247;42.666;23.292;2023-05-19T01:16:21;94569.97;;;14.54;69.98
4469;BME280;2247;42.666;23.292;2023-05-19T01:18:55;94562.81;;;14.54;69.45
4469;BME280;2247;42.666;23.292;2023-05-19T01:22:00;94568.41;;;14.53;70.04
4469;BME280;2247;42.666;23.292;2023-05-19T01:28:03;94569.31;;;14.62;69.79
4469;BME280;2247;42.666;23.292;2023-05-19T01:30:41;94569.53;;;14.66;69.73
4469;BME280;2247;42.666;23.292;2023-05-19T01:33:10;94567.38;;;14.68;69.38
4469;BME280;2247;42.666;23.292;2023-05-19T01:35:39;94569.03;;;14.64;69.72
4469;BME280;2247;42.666;23.292;2023-05-19T01:38:09;94569.31;;;14.62;69.44
4469;BME280;2247;42.666;23.292;2023-05-19T01:40:38;94563.81;;;14.58;69.44
4469;BME280;2247;42.666;23.292;2023-05-19T01:43:08;94569.13;;;14.58;69.99
4469;BME280;2247;42.666;23.292;2023-05-19T01:45:36;94563.59;;;14.55;70.17
4469;BME280;2247;42.666;23.292;2023-05-19T01:48:05;94571.44;;;14.46;69.93
4469;BME280;2247;42.666;23.292;2023-05-19T01:50:33;94563.13;;;14.34;70.49
4469;BME280;2247;42.666;23.292;2023-05-19T01:53:00;94574.38;;;14.26;70.97
4469;BME280;2247;42.666;23.292;2023-05-19T01:55:27;94572.78;;;14.25;70.57
4469;BME280;2247;42.666;23.292;2023-05-19T01:58:02;94573.91;;;14.24;70.75
4469;BME280;2247;42.666;23.292;2023-05-19T02:00:39;94581.53;;;14.26;71.14
4469;BME280;2247;42.666;23.292;2023-05-19T02:03:20;94587.16;;;14.24;71.21
4469;BME280;2247;42.666;23.292;2023-05-19T02:05:57;94583.91;;;14.27;71.56
4469;BME280;2247;42.666;23.292;2023-05-19T02:08:29;94571.94;;;14.30;71.51
4469;BME280;2247;42.666;23.292;2023-05-19T02:10:59;94579.63;;;14.31;71.69
4469;BME280;2247;42.666;23.292;2023-05-19T02:13:30;94578.59;;;14.27;71.56
4469;BME280;2247;42.666;23.292;2023-05-19T02:16:03;94580.19;;;14.28;71.79
4469;BME280;2247;42.666;23.292;2023-05-19T02:18:32;94548.78;;;14.03;71.53
4469;BME280;2247;42.666;23.292;2023-05-19T02:20:59;94587.16;;;14.24;72.05
4469;BME280;2247;42.666;23.292;2023-05-19T02:23:26;94585.84;;;14.22;72.28
4469;BME280;2247;42.666;23.292;2023-05-19T02:25:53;94586.72;;;14.17;71.94
4469;BME280;2247;42.666;23.292;2023-05-19T02:28:20;94581.44;;;14.17;72.21
4469;BME280;2247;42.666;23.292;2023-05-19T02:30:47;94579.84;;;14.16;72.42
4469;BME280;2247;42.666;23.292;2023-05-19T02:33:14;94580.41;;;14.13;71.96
4469;BME280;2247;42.666;23.292;2023-05-19T02:35:44;94575.19;;;14.08;72.06
4469;BME280;2247;42.666;23.292;2023-05-19T02:38:11;94580.13;;;14.14;71.75
4469;BME280;2247;42.666;23.292;2023-05-19T02:40:38;94582.06;;;14.09;72.11
4469;BME280;2247;42.666;23.292;2023-05-19T02:43:05;94580.50;;;14.08;72.40
4469;BME280;2247;42.666;23.292;2023-05-19T02:45:32;94585.28;;;14.06;72.70
4469;BME280;2247;42.666;23.292;2023-05-19T02:47:59;94568.44;;;13.97;72.30
4469;BME280;2247;42.666;23.292;2023-05-19T02:50:26;94585.00;;;14.07;72.64
4469;BME280;2247;42.666;23.292;2023-05-19T02:52:55;94587.22;;;14.00;72.64
4469;BME280;2247;42.666;23.292;2023-05-19T02:55:22;94595.38;;;14.04;72.90
4469;BME280;2247;42.666;23.292;2023-05-19T02:57:48;94586.94;;;14.02;72.23
4469;BME280;2247;42.666;23.292;2023-05-19T03:00:15;94570.19;;;13.88;72.80
4469;BME280;2247;42.666;23.292;2023-05-19T03:02:42;94592.53;;;14.00;73.07
4469;BME280;2247;42.666;23.292;2023-05-19T03:05:09;94592.28;;;13.97;73.14
4469;BME280;2247;42.666;23.292;2023-05-19T03:07:36;94589.63;;;13.97;73.25
4469;BME280;2247;42.666;23.292;2023-05-19T03:10:06;94593.06;;;13.97;73.14
4469;BME280;2247;42.666;23.292;2023-05-19T03:12:33;94594.03;;;14.06;72.71
4469;BME280;2247;42.666;23.292;2023-05-19T03:14:59;94597.53;;;14.02;72.84
4469;BME280;2247;42.666;23.292;2023-05-19T03:17:26;94601.25;;;14.01;73.19
4469;BME280;2247;42.666;23.292;2023-05-19T03:19:58;94607.00;;;14.08;73.07
4469;BME280;2247;42.666;23.292;2023-05-19T03:22:25;94605.22;;;14.03;72.95
4469;BME280;2247;42.666;23.292;2023-05-19T03:24:52;94601.88;;;14.11;73.49
4469;BME280;2247;42.666;23.292;2023-05-19T03:27:20;94591.84;;;14.27;72.67
4469;BME280;2247;42.666;23.292;2023-05-19T03:29:46;94608.47;;;14.33;72.19
4469;BME280;2247;42.666;23.292;2023-05-19T03:32:14;94597.75;;;14.43;72.05
4469;BME280;2247;42.666;23.292;2023-05-19T03:34:40;94598.53;;;14.43;71.68
4469;BME280;2247;42.666;23.292;2023-05-19T03:37:07;94598.81;;;14.42;72.09
4469;BME280;2247;42.666;23.292;2023-05-19T03:39:37;94601.44;;;14.61;71.61
4469;BME280;2247;42.666;23.292;2023-05-19T03:42:05;94606.59;;;14.71;71.28
4469;BME280;2247;42.666;23.292;2023-05-19T03:44:33;94600.63;;;14.79;70.68
4469;BME280;2247;42.666;23.292;2023-05-19T03:47:00;94600.34;;;14.94;70.16
4469;BME280;2247;42.666;23.292;2023-05-19T03:49:27;94596.28;;;14.83;70.12
4469;BME280;2247;42.666;23.292;2023-05-19T03:51:53;94606.81;;;14.88;70.04
4469;BME280;2247;42.666;23.292;2023-05-19T03:54:21;94606.16;;;14.96;70.19
4469;BME280;2247;42.666;23.292;2023-05-19T03:56:48;94605.88;;;15.11;69.28
4469;BME280;2247;42.666;23.292;2023-05-19T03:59:15;94603.72;;;15.13;69.00
4469;BME280;2247;42.666;23.292;2023-05-19T04:01:48;94573.13;;;15.02;69.19
4469;BME280;2247;42.666;23.292;2023-05-19T04:04:19;94606.97;;;15.37;68.59
4469;BME280;2247;42.666;23.292;2023-05-19T04:06:52;94612.31;;;15.65;68.05
4469;BME280;2247;42.666;23.292;2023-05-19T04:09:30;94617.63;;;15.79;67.43
4469;BME280;2247;42.666;23.292;2023-05-19T04:11:59;94607.50;;;16.17;66.18
4469;BME280;2247;42.666;23.292;2023-05-19T04:14:29;94601.00;;;16.23;65.33
4469;BME280;2247;42.666;23.292;2023-05-19T04:17:04;94593.00;;;16.23;65.00
4469;BME280;2247;42.666;23.292;2023-05-19T04:19:39;94606.09;;;16.19;64.72
4469;BME280;2247;42.666;23.292;2023-05-19T04:22:20;94614.41;;;16.18;65.15
4469;BME280;2247;42.666;23.292;2023-05-19T04:24:51;94615.03;;;16.01;65.95
4469;BME280;2247;42.666;23.292;2023-05-19T04:27:30;94630.56;;;16.07;66.08
4469;BME280;2247;42.666;23.292;2023-05-19T04:30:07;94630.34;;;16.18;66.12
4469;BME280;2247;42.666;23.292;2023-05-19T04:32:36;94632.44;;;16.43;65.51
4469;BME280;2247;42.666;23.292;2023-05-19T04:35:04;94612.09;;;16.61;64.77
4469;BME280;2247;42.666;23.292;2023-05-19T04:37:32;94626.97;;;16.84;63.93
4469;BME280;2247;42.666;23.292;2023-05-19T04:40:01;94620.72;;;16.88;63.17
4469;BME280;2247;42.666;23.292;2023-05-19T04:42:31;94623.72;;;17.18;62.44
4469;BME280;2247;42.666;23.292;2023-05-19T04:44:59;94619.75;;;17.38;61.78
4469;BME280;2247;42.666;23.292;2023-05-19T04:47:28;94607.84;;;17.44;61.53
4469;BME280;2247;42.666;23.292;2023-05-19T04:49:57;94635.06;;;18.11;60.77
4469;BME280;2247;42.666;23.292;2023-05-19T04:52:25;94629.75;;;18.45;59.11
4469;BME280;2247;42.666;23.292;2023-05-19T04:54:52;94621.72;;;18.54;57.91
4469;BME280;2247;42.666;23.292;2023-05-19T04:57:19;94608.59;;;18.58;57.52
4469;BME280;2247;42.666;23.292;2023-05-19T04:59:46;94642.81;;;18.56;57.40
4469;BME280;2247;42.666;23.292;2023-05-19T05:02:14;94630.19;;;18.47;57.71
4469;BME280;2247;42.666;23.292;2023-05-19T05:04:41;94636.34;;;18.31;58.03
4469;BME280;2247;42.666;23.292;2023-05-19T05:07:21;94628.91;;;18.02;58.64
4469;BME280;2247;42.666;23.292;2023-05-19T05:09:50;94601.22;;;17.72;58.97
4469;BME280;2247;42.666;23.292;2023-05-19T05:12:22;94616.50;;;17.89;59.40
4469;BME280;2247;42.666;23.292;2023-05-19T05:17:22;94620.94;;;18.10;59.24
4469;BME280;2247;42.666;23.292;2023-05-19T05:20:04;94631.13;;;18.08;58.75
4469;BME280;2247;42.666;23.292;2023-05-19T05:22:36;94632.09;;;18.47;57.93
4469;BME280;2247;42.666;23.292;2023-05-19T05:25:07;94610.91;;;18.50;57.08
4469;BME280;2247;42.666;23.292;2023-05-19T05:27:38;94600.09;;;18.64;57.91
4469;BME280;2247;42.666;23.292;2023-05-19T05:30:08;94617.09;;;19.23;56.33
4469;BME280;2247;42.666;23.292;2023-05-19T05:32:42;94640.00;;;19.42;55.45
4469;BME280;2247;42.666;23.292;2023-05-19T05:37:56;94632.03;;;19.24;55.46
4469;BME280;2247;42.666;23.292;2023-05-19T05:40:24;94624.31;;;19.23;55.19
4469;BME280;2247;42.666;23.292;2023-05-19T05:42:52;94637.38;;;19.24;55.23
4469;BME280;2247;42.666;23.292;2023-05-19T05:45:20;94617.66;;;18.91;55.73
4469;BME280;2247;42.666;23.292;2023-05-19T05:47:49;94638.81;;;19.13;55.92
4469;BME280;2247;42.666;23.292;2023-05-19T05:50:17;94636.59;;;19.24;55.52
4469;BME280;2247;42.666;23.292;2023-05-19T05:52:46;94632.47;;;19.35;55.09
4469;BME280;2247;42.666;23.292;2023-05-19T05:55:16;94633.59;;;19.72;55.19
4469;BME280;2247;42.666;23.292;2023-05-19T05:57:43;94635.94;;;20.12;53.68
4469;BME280;2247;42.666;23.292;2023-05-19T06:00:13;94633.88;;;20.09;54.17
4469;BME280;2247;42.666;23.292;2023-05-19T06:02:43;94656.09;;;20.38;53.38
4469;BME280;2247;42.666;23.292;2023-05-19T06:05:12;94657.72;;;20.72;52.12
4469;BME280;2247;42.666;23.292;2023-05-19T06:07:45;94650.91;;;20.96;51.50
4469;BME280;2247;42.666;23.292;2023-05-19T06:10:20;94648.38;;;21.32;50.90
4469;BME280;2247;42.666;23.292;2023-05-19T06:12:50;94658.47;;;21.72;49.72
4469;BME280;2247;42.666;23.292;2023-05-19T06:15:18;94647.78;;;22.08;48.51
4469;BME280;2247;42.666;23.292;2023-05-19T06:17:47;94637.81;;;22.21;48.73
4469;BME280;2247;42.666;23.292;2023-05-19T06:20:15;94653.25;;;22.36;48.53
4469;BME280;2247;42.666;23.292;2023-05-19T06:22:42;94641.34;;;22.73;47.22
4469;BME280;2247;42.666;23.292;2023-05-19T06:25:10;94634.41;;;22.48;46.83
4469;BME280;2247;42.666;23.292;2023-05-19T06:27:41;94643.06;;;22.54;47.28
4469;BME280;2247;42.666;23.292;2023-05-19T06:30:09;94630.63;;;22.49;47.27
4469;BME280;2247;42.666;23.292;2023-05-19T06:32:37;94631.56;;;22.81;46.82
4469;BME280;2247;42.666;23.292;2023-05-19T06:35:07;94635.22;;;23.16;45.98
4469;BME280;2247;42.666;23.292;2023-05-19T06:37:35;94651.22;;;23.41;45.78
4469;BME280;2247;42.666;23.292;2023-05-19T06:40:11;94651.97;;;23.53;45.09
4469;BME280;2247;42.666;23.292;2023-05-19T06:42:51;94629.25;;;23.39;44.45
4469;BME280;2247;42.666;23.292;2023-05-19T06:45:19;94657.28;;;23.50;44.23
4469;BME280;2247;42.666;23.292;2023-05-19T06:47:48;94653.09;;;23.25;42.77
4469;BME280;2247;42.666;23.292;2023-05-19T06:50:17;94659.97;;;23.50;43.33
4469;BME280;2247;42.666;23.292;2023-05-19T06:52:58;94649.28;;;23.69;42.46
4469;BME280;2247;42.666;23.292;2023-05-19T06:55:27;94645.13;;;23.87;41.72
4469;BME280;2247;42.666;23.292;2023-05-19T06:58:05;94642.31;;;24.00;41.54
4469;BME280;2247;42.666;23.292;2023-05-19T07:00:32;94657.06;;;24.37;42.17
4469;BME280;2247;42.666;23.292;2023-05-19T07:03:07;94632.44;;;24.19;41.61
4469;BME280;2247;42.666;23.292;2023-05-19T07:05:34;94655.28;;;24.25;41.79
4469;BME280;2247;42.666;23.292;2023-05-19T07:08:03;94660.38;;;24.15;41.70
4469;BME280;2247;42.666;23.292;2023-05-19T07:10:44;94661.88;;;24.28;41.75
4469;BME280;2247;42.666;23.292;2023-05-19T07:21:12;94646.56;;;24.48;40.57
4469;BME280;2247;42.666;23.292;2023-05-19T07:23:40;94660.84;;;24.32;40.18
4469;BME280;2247;42.666;23.292;2023-05-19T07:26:25;94657.63;;;23.80;41.48
4469;BME280;2247;42.666;23.292;2023-05-19T10:24:18;94576.44;;;20.35;48.71
4469;BME280;2247;42.666;23.292;2023-05-19T10:26:50;94603.69;;;20.70;48.16
4469;BME280;2247;42.666;23.292;2023-05-19T10:29:32;94614.81;;;20.81;48.36
4469;BME280;2247;42.666;23.292;2023-05-19T10:32:06;94561.69;;;20.62;48.52
4469;BME280;2247;42.666;23.292;2023-05-19T10:35:00;94599.56;;;20.94;49.01
4469;BME280;2247;42.666;23.292;2023-05-19T10:37:54;94596.31;;;21.21;48.61
4469;BME280;2247;42.666;23.292;2023-05-19T10:44:05;94586.41;;;21.01;46.77
4469;BME280;2247;42.666;23.292;2023-05-19T10:46:35;94602.50;;;21.13;46.66
4469;BME280;2247;42.666;23.292;2023-05-19T10:49:19;94592.56;;;21.13;45.79
4469;BME280;2247;42.666;23.292;2023-05-19T10:51:47;94575.25;;;21.11;45.55
4469;BME280;2247;42.666;23.292;2023-05-19T10:54:39;94580.00;;;21.26;46.10
4469;BME280;2247;42.666;23.292;2023-05-19T10:57:27;94579.34;;;21.29;45.59
4469;BME280;2247;42.666;23.292;2023-05-19T11:00:26;94596.16;;;21.17;45.06
4469;BME280;2247;42.666;23.292;2023-05-19T11:03:11;94572.88;;;20.97;45.24
4469;BME280;2247;42.666;23.292;2023-05-19T11:05:48;94587.97;;;21.02;45.11
4469;BME280;2247;42.666;23.292;2023-05-19T11:08:34;94564.50;;;20.99;45.32
4469;BME280;2247;42.666;23.292;2023-05-19T11:11:13;94581.66;;;21.18;45.23
4469;BME280;2247;42.666;23.292;2023-05-19T11:13:46;94571.00;;;21.10;42.88
4469;BME280;2247;42.666;23.292;2023-05-19T11:16:31;94578.97;;;21.18;42.98
4469;BME280;2247;42.666;23.292;2023-05-19T11:19:08;94576.31;;;21.31;43.16
4469;BME280;2247;42.666;23.292;2023-05-19T11:21:49;94546.88;;;21.10;42.67
4469;BME280;2247;42.666;23.292;2023-05-19T11:24:43;94554.97;;;21.34;43.16
4469;BME280;2247;42.666;23.292;2023-05-19T11:27:19;94579.03;;;21.43;43.46
4469;BME280;2247;42.666;23.292;2023-05-19T11:29:51;94573.75;;;21.46;43.99
4469;BME280;2247;42.666;23.292;2023-05-19T11:32:35;94571.06;;;21.46;44.43
4469;BME280;2247;42.666;23.292;2023-05-19T11:35:17;94556.88;;;21.46;43.61
4469;BME280;2247;42.666;23.292;2023-05-19T11:39:17;94571.31;;;21.53;42.32
4469;BME280;2247;42.666;23.292;2023-05-19T11:41:54;94572.19;;;21.45;42.13
4469;BME280;2247;42.666;23.292;2023-05-19T11:44:36;94567.50;;;21.42;41.99
4469;BME280;2247;42.666;23.292;2023-05-19T11:49:53;94577.66;;;21.37;42.73
4469;BME280;2247;42.666;23.292;2023-05-19T11:52:34;94607.59;;;21.27;43.99
4469;BME280;2247;42.666;23.292;2023-05-19T12:26:03;94659.78;;;17.94;62.00
4469;BME280;2247;42.666;23.292;2023-05-19T12:28:35;94684.56;;;17.55;63.22
4469;BME280;2247;42.666;23.292;2023-05-19T12:31:09;94637.47;;;17.11;64.38
4469;BME280;2247;42.666;23.292;2023-05-19T12:33:44;94651.59;;;17.12;64.91
4469;BME280;2247;42.666;23.292;2023-05-19T12:36:25;94652.44;;;17.21;66.54
4469;BME280;2247;42.666;23.292;2023-05-19T12:51:54;94621.88;;;18.15;60.16
4469;BME280;2247;42.666;23.292;2023-05-19T12:54:26;94602.56;;;18.26;58.56
4469;BME280;2247;42.666;23.292;2023-05-19T12:57:04;94590.66;;;18.41;57.30
4469;BME280;2247;42.666;23.292;2023-05-19T12:59:45;94584.69;;;18.44;56.66
4469;BME280;2247;42.666;23.292;2023-05-19T13:02:25;94596.16;;;18.53;55.08
4469;BME280;2247;42.666;23.292;2023-05-19T13:05:07;94585.78;;;18.52;54.31
4469;BME280;2247;42.666;23.292;2023-05-19T13:07:38;94594.59;;;18.69;54.14
4469;BME280;2247;42.666;23.292;2023-05-19T13:10:11;94585.66;;;18.74;53.85
4469;BME280;2247;42.666;23.292;2023-05-19T13:12:52;94585.13;;;18.89;53.59
4469;BME280;2247;42.666;23.292;2023-05-19T13:15:36;94570.38;;;18.83;51.93
4469;BME280;2247;42.666;23.292;2023-05-19T13:18:17;94561.75;;;18.86;51.64
4469;BME280;2247;42.666;23.292;2023-05-19T13:20:58;94558.59;;;18.84;51.87
4469;BME280;2247;42.666;23.292;2023-05-19T13:23:45;94586.38;;;19.00;51.75
4469;BME280;2247;42.666;23.292;2023-05-19T13:26:26;94569.41;;;18.96;50.48
4469;BME280;2247;42.666;23.292;2023-05-19T13:28:58;94564.53;;;18.98;50.81
4469;BME280;2247;42.666;23.292;2023-05-19T13:31:39;94575.22;;;18.98;51.60
4469;BME280;2247;42.666;23.292;2023-05-19T13:34:20;94578.34;;;19.00;50.75
4469;BME280;2247;42.666;23.292;2023-05-19T13:37:03;94567.66;;;19.00;51.10
4469;BME280;2247;42.666;23.292;2023-05-19T14:00:13;94577.16;;;19.27;50.84
4469;BME280;2247;42.666;23.292;2023-05-19T14:03:02;94570.03;;;19.40;51.25
4469;BME280;2247;42.666;23.292;2023-05-19T14:05:44;94574.59;;;19.39;51.50
4469;BME280;2247;42.666;23.292;2023-05-19T14:08:30;94570.34;;;19.38;51.19
4469;BME280;2247;42.666;23.292;2023-05-19T14:11:16;94568.97;;;19.32;51.34
4469;BME280;2247;42.666;23.292;2023-05-19T14:13:58;94573.19;;;19.42;49.86
4469;BME280;2247;42.666;23.292;2023-05-19T14:19:44;94528.91;;;19.23;49.32
4469;BME280;2247;42.666;23.292;2023-05-19T14:22:11;94577.75;;;19.50;48.85
4469;BME280;2247;42.666;23.292;2023-05-19T14:24:40;94552.91;;;19.41;48.83
4469;BME280;2247;42.666;23.292;2023-05-19T14:27:21;94554.31;;;19.47;47.51
4469;BME280;2247;42.666;23.292;2023-05-19T14:32:35;94579.59;;;19.79;47.39
4469;BME280;2247;42.666;23.292;2023-05-19T14:42:00;94589.91;;;19.97;47.39
4469;BME280;2247;42.666;23.292;2023-05-19T14:47:16;94567.97;;;20.04;46.96
4469;BME280;2247;42.666;23.292;2023-05-19T14:49:57;94583.53;;;20.11;45.43
4469;BME280;2247;42.666;23.292;2023-05-19T14:52:34;94565.16;;;20.00;45.19
4469;BME280;2247;42.666;23.292;2023-05-19T14:55:16;94597.75;;;20.23;45.34
4469;BME280;2247;42.666;23.292;2023-05-19T15:38:04;94580.41;;;21.16;43.89
4469;BME280;2247;42.666;23.292;2023-05-19T15:40:46;94583.53;;;21.18;44.20
4469;BME280;2247;42.666;23.292;2023-05-19T15:43:30;94583.28;;;21.11;44.54
4469;BME280;2247;42.666;23.292;2023-05-19T15:46:43;94587.06;;;21.10;44.79
4469;BME280;2247;42.666;23.292;2023-05-19T15:49:12;94593.31;;;21.02;45.23
4469;BME280;2247;42.666;23.292;2023-05-19T15:51:39;94609.59;;;20.97;45.25
4469;BME280;2247;42.666;23.292;2023-05-19T15:54:07;94589.56;;;20.82;45.55
4469;BME280;2247;42.666;23.292;2023-05-19T15:56:49;94606.22;;;20.88;45.52
4469;BME280;2247;42.666;23.292;2023-05-19T15:59:27;94594.47;;;20.80;45.78
4469;BME280;2247;42.666;23.292;2023-05-19T16:05:23;94582.06;;;20.75;46.62
4469;BME280;2247;42.666;23.292;2023-05-19T16:07:53;94592.78;;;20.75;46.56
4469;BME280;2247;42.666;23.292;2023-05-19T16:10:23;94577.50;;;20.55;47.30
4469;BME280;2247;42.666;23.292;2023-05-19T16:13:04;94599.09;;;20.59;47.64
4469;BME280;2247;42.666;23.292;2023-05-19T16:15:34;94589.94;;;20.60;47.31
4469;BME280;2247;42.666;23.292;2023-05-19T16:18:06;94598.63;;;20.57;47.31
4469;BME280;2247;42.666;23.292;2023-05-19T16:27:54;94604.97;;;20.52;47.79
4469;BME280;2247;42.666;23.292;2023-05-19T16:30:29;94571.84;;;20.36;47.58
4469;BME280;2247;42.666;23.292;2023-05-19T16:33:04;94604.19;;;20.52;47.91
4469;BME280;2247;42.666;23.292;2023-05-19T16:35:32;94605.81;;;20.44;47.88
4469;BME280;2247;42.666;23.292;2023-05-19T16:38:13;94614.50;;;20.41;47.92
4469;BME280;2247;42.666;23.292;2023-05-19T16:40:40;94582.22;;;20.17;48.01
4469;BME280;2247;42.666;23.292;2023-05-19T16:43:24;94597.88;;;20.27;48.23
4469;BME280;2247;42.666;23.292;2023-05-19T16:45:58;94615.38;;;20.24;49.95
4469;BME280;2247;42.666;23.292;2023-05-19T16:48:29;94616.53;;;20.15;50.32
4469;BME280;2247;42.666;23.292;2023-05-19T16:50:57;94584.44;;;19.85;49.81
4469;BME280;2247;42.666;23.292;2023-05-19T17:09:22;94568.50;;;19.68;50.70
4469;BME280;2247;42.666;23.292;2023-05-19T17:11:54;94572.91;;;19.64;51.27
4469;BME280;2247;42.666;23.292;2023-05-19T17:14:32;94600.72;;;19.72;51.56
4469;BME280;2247;42.666;23.292;2023-05-19T17:17:10;94604.19;;;19.72;51.49
4469;BME280;2247;42.666;23.292;2023-05-19T17:19:49;94598.56;;;19.65;51.94
4469;BME280;2247;42.666;23.292;2023-05-19T17:22:22;94621.38;;;19.92;51.81
4469;BME280;2247;42.666;23.292;2023-05-19T17:31:16;94611.03;;;19.52;52.89
4469;BME280;2247;42.666;23.292;2023-05-19T17:33:56;94608.25;;;19.49;52.96
4469;BME280;2247;42.666;23.292;2023-05-19T17:36:24;94624.00;;;19.71;53.26
4469;BME280;2247;42.666;23.292;2023-05-19T17:38:55;94617.47;;;19.60;53.22
4469;BME280;2247;42.666;23.292;2023-05-19T17:41:31;94614.88;;;19.72;53.26
4469;BME280;2247;42.666;23.292;2023-05-19T17:43:59;94634.47;;;19.85;53.71
4469;BME280;2247;42.666;23.292;2023-05-19T17:55:38;94617.91;;;19.71;53.45
4469;BME280;2247;42.666;23.292;2023-05-19T17:58:13;94602.19;;;19.69;52.81
4469;BME280;2247;42.666;23.292;2023-05-19T18:00:49;94623.03;;;19.84;52.77
4469;BME280;2247;42.666;23.292;2023-05-19T18:03:23;94614.09;;;19.72;52.87
4469;BME280;2247;42.666;23.292;2023-05-19T18:05:51;94639.72;;;19.81;52.71
4469;BME280;2247;42.666;23.292;2023-05-19T18:08:21;94634.72;;;19.71;53.22
4469;BME280;2247;42.666;23.292;2023-05-19T18:10:51;94644.69;;;19.62;53.67
4469;BME280;2247;42.666;23.292;2023-05-19T18:16:02;94653.78;;;19.61;54.28
4469;BME280;2247;42.666;23.292;2023-05-19T18:18:46;94658.84;;;19.62;54.17
4469;BME280;2247;42.666;23.292;2023-05-19T19:19:52;94716.72;;;18.38;60.85
4469;BME280;2247;42.666;23.292;2023-05-19T19:30:30;94707.34;;;18.01;61.44
4469;BME280;2247;42.666;23.292;2023-05-19T19:32:57;94684.66;;;17.73;61.44
4469;BME280;2247;42.666;23.292;2023-05-19T19:35:34;94687.81;;;17.75;62.61
4469;BME280;2247;42.666;23.292;2023-05-19T19:38:03;94695.94;;;17.69;63.18
4469;BME280;2247;42.666;23.292;2023-05-19T19:40:39;94694.91;;;17.57;63.85
4469;BME280;2247;42.666;23.292;2023-05-19T19:43:08;94705.50;;;17.70;63.53
4469;BME280;2247;42.666;23.292;2023-05-19T19:45:35;94714.59;;;17.69;62.79
4469;BME280;2247;42.666;23.292;2023-05-19T19:48:04;94698.28;;;17.62;62.27
4469;BME280;2247;42.666;23.292;2023-05-19T19:50:33;94717.19;;;17.83;62.20
4469;BME280;2247;42.666;23.292;2023-05-19T19:53:00;94725.63;;;17.85;61.18
4469;BME280;2247;42.666;23.292;2023-05-19T19:55:27;94711.56;;;17.93;61.16
4469;BME280;2247;42.666;23.292;2023-05-19T19:57:55;94722.09;;;18.07;59.79
4469;BME280;2247;42.666;23.292;2023-05-19T20:00:22;94732.66;;;18.21;59.74
4469;BME280;2247;42.666;23.292;2023-05-19T20:02:50;94731.53;;;18.13;60.55
4469;BME280;2247;42.666;23.292;2023-05-19T20:05:18;94728.41;;;18.11;60.46
4469;BME280;2247;42.666;23.292;2023-05-19T20:07:46;94715.94;;;17.89;60.95
4469;BME280;2247;42.666;23.292;2023-05-19T20:10:13;94736.19;;;17.99;61.50
4469;BME280;2247;42.666;23.292;2023-05-19T20:12:40;94726.41;;;17.86;61.98
4469;BME280;2247;42.666;23.292;2023-05-19T20:15:09;94716.66;;;17.73;62.45
4469;BME280;2247;42.666;23.292;2023-05-19T20:17:40;94741.78;;;17.80;61.88
4469;BME280;2247;42.666;23.292;2023-05-19T20:20:08;94745.66;;;17.74;62.39
4469;BME280;2247;42.666;23.292;2023-05-19T20:22:37;94747.41;;;17.56;63.38
4469;BME280;2247;42.666;23.292;2023-05-19T20:25:07;94745.66;;;17.52;63.62
4469;BME280;2247;42.666;23.292;2023-05-19T20:27:35;94756.75;;;17.45;64.13
4469;BME280;2247;42.666;23.292;2023-05-19T20:30:03;94741.78;;;17.27;64.80
4469;BME280;2247;42.666;23.292;2023-05-19T20:32:30;94734.06;;;17.25;64.67
4469;BME280;2247;42.666;23.292;2023-05-19T20:34:57;94750.91;;;17.35;65.08
4469;BME280;2247;42.666;23.292;2023-05-19T20:37:24;94753.38;;;17.31;65.45
4469;BME280;2247;42.666;23.292;2023-05-19T20:39:52;94757.69;;;17.41;65.26
4469;BME280;2247;42.666;23.292;2023-05-19T20:42:21;94758.78;;;17.40;65.27
4469;BME280;2247;42.666;23.292;2023-05-19T20:44:48;94763.88;;;17.27;66.12
4469;BME280;2247;42.666;23.292;2023-05-19T20:47:15;94748.72;;;17.14;66.94